createdAt,value
2019-03-22T00:00:59.491Z,99.90
2019-03-22T00:03:31.699Z,99.90
2019-03-22T00:06:03.960Z,99.90
2019-03-22T00:08:36.023Z,99.90
2019-03-22T00:11:08.280Z,99.90
2019-03-22T00:13:40.409Z,99.90
2019-03-22T00:16:13.072Z,99.90
2019-03-22T00:18:45.410Z,99.90
2019-03-22T00:21:17.538Z,99.90
2019-03-22T00:23:49.603Z,99.90
2019-03-22T00:26:21.747Z,99.90
2019-03-22T00:28:54.228Z,99.90
2019-03-22T00:31:27.467Z,99.90
2019-03-22T00:34:00.916Z,99.90
2019-03-22T00:36:33.487Z,99.90
2019-03-22T00:39:06.735Z,99.90
2019-03-22T00:41:39.046Z,99.90
2019-03-22T00:44:11.052Z,99.90
2019-03-22T00:46:43.114Z,99.90
2019-03-22T00:49:15.637Z,99.90
2019-03-22T00:51:47.767Z,99.90
2019-03-22T00:54:20.202Z,99.90
2019-03-22T00:56:52.524Z,99.90
2019-03-22T00:59:24.778Z,99.90
2019-03-22T01:01:56.842Z,99.90
2019-03-22T01:04:29.086Z,99.90
2019-03-22T01:07:01.143Z,99.90
2019-03-22T01:09:33.200Z,99.90
2019-03-22T01:12:05.677Z,99.90
2019-03-22T01:14:37.730Z,99.90
2019-03-22T01:17:10.100Z,99.90
2019-03-22T01:19:42.164Z,99.90
2019-03-22T01:22:14.495Z,99.90
2019-03-22T01:24:47.112Z,99.90
2019-03-22T01:27:19.109Z,99.90
2019-03-22T01:29:51.158Z,99.90
2019-03-22T01:32:24.267Z,99.90
2019-03-22T01:34:56.844Z,99.90
2019-03-22T01:37:29.220Z,99.90
2019-03-22T01:40:01.373Z,99.90
2019-03-22T01:42:33.447Z,99.90
2019-03-22T01:45:07.869Z,99.90
2019-03-22T01:47:40.658Z,99.90
2019-03-22T01:50:14.408Z,99.90
2019-03-22T01:52:46.643Z,99.90
2019-03-22T01:55:18.986Z,99.90
2019-03-22T01:57:53.453Z,99.90
2019-03-22T02:00:25.265Z,99.90
2019-03-22T02:02:58.353Z,99.90
2019-03-22T02:05:30.749Z,99.90
2019-03-22T02:08:02.903Z,99.90
2019-03-22T02:10:35.119Z,99.90
2019-03-22T02:13:07.355Z,99.90
2019-03-22T02:15:39.757Z,99.90
2019-03-22T02:18:12.170Z,99.90
2019-03-22T02:20:44.346Z,99.90
2019-03-22T02:23:16.521Z,99.90
2019-03-22T02:25:48.650Z,99.90
2019-03-22T02:28:20.941Z,99.90
2019-03-22T02:30:53.565Z,99.90
2019-03-22T02:33:25.643Z,99.90
2019-03-22T02:35:57.963Z,99.90
2019-03-22T02:38:30.086Z,99.90
2019-03-22T02:41:02.473Z,99.90
2019-03-22T02:43:34.771Z,99.90
2019-03-22T02:46:06.968Z,99.90
2019-03-22T02:48:39.148Z,99.90
2019-03-22T02:51:11.576Z,99.90
2019-03-22T02:53:44.023Z,99.90
2019-03-22T02:56:16.265Z,99.90
2019-03-22T02:58:48.523Z,99.90
2019-03-22T03:01:20.575Z,99.90
2019-03-22T03:03:52.817Z,99.90
2019-03-22T03:06:25.355Z,99.90
2019-03-22T03:08:57.420Z,99.90
2019-03-22T03:11:29.411Z,99.90
2019-03-22T03:14:01.884Z,99.90
2019-03-22T03:16:34.027Z,99.90
2019-03-22T03:19:06.276Z,99.90
2019-03-22T03:21:38.410Z,99.90
2019-03-22T03:24:10.867Z,99.90
2019-03-22T03:26:43.217Z,99.90
2019-03-22T03:29:15.978Z,99.90
2019-03-22T03:31:48.250Z,99.90
2019-03-22T03:34:20.309Z,99.90
2019-03-22T03:36:52.436Z,99.90
2019-03-22T03:39:24.464Z,99.90
2019-03-22T03:41:57.063Z,99.90
2019-03-22T03:44:29.441Z,99.90
2019-03-22T03:47:02.355Z,99.90
2019-03-22T03:49:34.360Z,99.90
2019-03-22T03:52:06.639Z,99.90
2019-03-22T03:54:39.115Z,99.90
2019-03-22T03:57:11.397Z,99.90
2019-03-22T03:59:43.534Z,99.90
2019-03-22T04:02:16.094Z,99.90
2019-03-22T04:04:48.536Z,99.90
2019-03-22T04:07:20.672Z,99.90
2019-03-22T04:09:53.215Z,99.90
2019-03-22T04:12:25.272Z,99.90
2019-03-22T04:14:57.680Z,99.90
2019-03-22T04:17:29.797Z,99.90
2019-03-22T04:20:01.894Z,99.90
2019-03-22T04:22:36.436Z,99.90
2019-03-22T04:25:08.562Z,99.90
2019-03-22T04:27:40.811Z,99.90
2019-03-22T04:30:13.119Z,99.90
2019-03-22T04:32:45.798Z,99.90
2019-03-22T04:35:18.185Z,99.90
2019-03-22T04:37:50.330Z,99.90
2019-03-22T04:40:27.894Z,99.90
2019-03-22T04:43:00.209Z,99.90
2019-03-22T04:45:34.937Z,99.90
2019-03-22T04:48:14.912Z,99.90
2019-03-22T04:50:49.417Z,99.90
2019-03-22T04:53:25.428Z,99.90
2019-03-22T04:56:03.738Z,99.90
2019-03-22T04:58:37.892Z,99.90
2019-03-22T05:01:13.137Z,99.90
2019-03-22T05:03:45.935Z,99.90
2019-03-22T05:06:21.437Z,99.90
2019-03-22T05:08:57.376Z,99.90
2019-03-22T05:11:30.892Z,99.90
2019-03-22T05:14:05.791Z,99.90
2019-03-22T05:16:43.734Z,99.90
2019-03-22T05:19:19.048Z,99.90
2019-03-22T05:21:54.305Z,99.90
2019-03-22T05:24:29.162Z,99.90
2019-03-22T05:27:02.724Z,99.90
2019-03-22T05:29:38.946Z,99.90
2019-03-22T05:32:17.358Z,99.90
2019-03-22T05:34:49.360Z,99.90
2019-03-22T05:37:21.726Z,99.90
2019-03-22T05:39:53.810Z,99.90
2019-03-22T05:42:25.790Z,99.90
2019-03-22T05:44:57.795Z,99.90
2019-03-22T05:47:29.923Z,99.90
2019-03-22T05:50:01.995Z,99.90
2019-03-22T05:52:34.430Z,99.90
2019-03-22T05:55:07.561Z,99.90
2019-03-22T05:57:40.000Z,99.90
2019-03-22T06:00:14.046Z,99.90
2019-03-22T06:02:46.308Z,99.90
2019-03-22T06:05:18.329Z,99.90
2019-03-22T06:07:50.310Z,99.90
2019-03-22T06:10:22.453Z,99.90
2019-03-22T06:12:54.506Z,99.90
2019-03-22T06:15:26.655Z,99.90
2019-03-22T06:17:59.129Z,99.90
2019-03-22T06:20:31.542Z,99.90
2019-03-22T06:23:03.519Z,99.90
2019-03-22T06:25:35.726Z,99.90
2019-03-22T06:28:07.860Z,99.90
2019-03-22T06:30:40.027Z,99.90
2019-03-22T06:33:12.146Z,99.90
2019-03-22T06:35:44.739Z,99.90
2019-03-22T06:38:17.060Z,99.90
2019-03-22T06:40:50.207Z,99.90
2019-03-22T06:43:22.331Z,99.90
2019-03-22T06:45:54.469Z,99.90
2019-03-22T06:48:26.647Z,99.90
2019-03-22T06:50:58.788Z,99.90
2019-03-22T06:53:31.193Z,99.90
2019-03-22T06:56:03.645Z,99.90
2019-03-22T06:58:35.814Z,99.90
2019-03-22T07:01:07.984Z,99.90
2019-03-22T07:03:40.165Z,99.90
2019-03-22T07:06:12.237Z,99.90
2019-03-22T07:08:44.372Z,99.90
2019-03-22T07:11:16.438Z,99.90
2019-03-22T07:13:49.031Z,99.90
2019-03-22T07:16:22.058Z,99.90
2019-03-22T07:18:54.075Z,99.90
2019-03-22T07:21:26.069Z,99.10
2019-03-22T07:23:58.404Z,98.30
2019-03-22T07:26:30.626Z,99.10
2019-03-22T07:29:03.163Z,99.30
2019-03-22T07:31:35.958Z,99.90
2019-03-22T07:34:08.132Z,99.10
2019-03-22T07:36:40.424Z,98.30
2019-03-22T07:39:12.665Z,98.80
2019-03-22T07:41:44.728Z,96.90
2019-03-22T07:44:16.809Z,93.20
2019-03-22T07:46:48.933Z,93.00
2019-03-22T07:49:21.308Z,92.30
2019-03-22T07:51:53.516Z,91.20
2019-03-22T07:54:25.590Z,89.50
2019-03-22T07:56:58.088Z,92.00
2019-03-22T07:59:31.862Z,90.50
2019-03-22T08:02:04.905Z,85.50
2019-03-22T08:04:37.758Z,82.00
2019-03-22T08:07:10.309Z,86.10
2019-03-22T08:09:42.411Z,84.70
2019-03-22T08:12:14.589Z,81.30
2019-03-22T08:14:46.943Z,78.40
2019-03-22T08:17:19.219Z,70.00
2019-03-22T08:19:51.379Z,68.60
2019-03-22T08:22:23.714Z,73.50
2019-03-22T08:24:55.762Z,74.30
2019-03-22T08:27:28.034Z,68.80
2019-03-22T08:30:00.772Z,75.70
2019-03-22T08:32:33.967Z,74.90
2019-03-22T08:35:06.946Z,67.90
2019-03-22T08:37:51.698Z,68.80
2019-03-22T08:40:13.409Z,68.80
2019-03-22T08:42:46.132Z,66.40
2019-03-22T08:45:18.386Z,63.20
2019-03-22T08:47:50.440Z,66.00
2019-03-22T08:50:22.598Z,63.40
2019-03-22T08:52:54.795Z,65.10
2019-03-22T08:55:26.877Z,63.40
2019-03-22T08:57:59.146Z,63.10
2019-03-22T09:00:39.293Z,61.90
2019-03-22T09:03:05.352Z,63.20
2019-03-22T09:05:37.408Z,57.70
2019-03-22T09:08:09.683Z,62.50
2019-03-22T09:10:42.897Z,58.00
2019-03-22T09:13:15.092Z,61.10
2019-03-22T09:15:47.656Z,60.90
2019-03-22T09:18:19.763Z,60.10
2019-03-22T09:20:51.905Z,59.60
2019-03-22T09:23:24.408Z,59.70
2019-03-22T09:25:56.442Z,58.90
2019-03-22T09:28:29.818Z,60.10
2019-03-22T09:31:10.350Z,61.80
2019-03-22T09:33:36.223Z,58.60
2019-03-22T09:36:08.806Z,59.70
2019-03-22T09:38:41.245Z,62.70
2019-03-22T09:41:14.487Z,59.60
2019-03-22T09:43:46.679Z,61.10
2019-03-22T09:46:19.548Z,61.40
2019-03-22T09:48:52.083Z,57.90
2019-03-22T09:51:24.259Z,61.80
2019-03-22T09:53:56.391Z,63.70
2019-03-22T09:56:28.532Z,58.70
2019-03-22T09:59:00.751Z,59.20
2019-03-22T10:01:33.142Z,61.10
2019-03-22T10:04:05.286Z,59.40
2019-03-22T10:06:38.261Z,58.30
2019-03-22T10:09:10.717Z,60.70
2019-03-22T10:11:42.948Z,58.70
2019-03-22T10:14:15.077Z,57.40
2019-03-22T10:16:47.724Z,57.50
2019-03-22T10:19:20.116Z,59.80
2019-03-22T10:21:52.392Z,56.40
2019-03-22T10:24:24.991Z,59.00
2019-03-22T10:26:57.195Z,58.70
2019-03-22T10:29:29.619Z,58.40
2019-03-22T10:32:01.733Z,58.40
2019-03-22T10:34:34.084Z,56.70
2019-03-22T10:37:06.402Z,56.70
2019-03-22T10:39:38.489Z,55.10
2019-03-22T10:42:10.599Z,56.20
2019-03-22T10:44:42.730Z,54.00
2019-03-22T10:47:17.975Z,54.80
2019-03-22T10:49:48.741Z,53.90
2019-03-22T10:52:20.913Z,53.30
2019-03-22T10:54:53.366Z,53.40
2019-03-22T10:57:25.443Z,53.50
2019-03-22T10:59:57.517Z,52.60
2019-03-22T11:02:30.283Z,53.50
2019-03-22T11:05:02.596Z,55.60
2019-03-22T11:07:34.773Z,56.10
2019-03-22T11:10:11.127Z,56.00
2019-03-22T11:12:43.230Z,53.80
2019-03-22T11:15:16.009Z,53.60
2019-03-22T11:17:48.464Z,53.10
2019-03-22T11:20:20.875Z,52.90
2019-03-22T11:22:52.952Z,53.10
2019-03-22T11:25:25.125Z,53.60
2019-03-22T11:27:57.127Z,53.60
2019-03-22T11:30:29.395Z,53.90
2019-03-22T11:33:01.581Z,55.10
2019-03-22T11:35:33.828Z,54.20
2019-03-22T11:38:06.491Z,57.00
2019-03-22T11:40:38.703Z,53.50
2019-03-22T11:43:10.932Z,53.40
2019-03-22T11:45:43.269Z,56.50
2019-03-22T11:48:15.475Z,54.00
2019-03-22T11:50:47.635Z,56.10
2019-03-22T11:53:19.760Z,54.70
2019-03-22T11:55:52.626Z,54.30
2019-03-22T11:58:25.166Z,53.40
2019-03-22T12:00:57.784Z,54.10
2019-03-22T12:03:30.064Z,55.10
2019-03-22T12:06:02.390Z,55.30
2019-03-22T12:08:34.629Z,55.10
2019-03-22T12:11:06.973Z,55.40
2019-03-22T12:13:40.057Z,55.00
2019-03-22T12:16:12.891Z,56.40
2019-03-22T12:18:45.139Z,55.20
2019-03-22T12:21:17.754Z,53.20
2019-03-22T12:23:49.763Z,53.90
2019-03-22T12:26:22.036Z,53.90
2019-03-22T12:28:54.162Z,52.00
2019-03-22T12:31:26.339Z,53.20
2019-03-22T12:33:58.562Z,53.90
2019-03-22T12:36:30.666Z,53.30
2019-03-22T12:39:04.678Z,53.60
2019-03-22T12:41:36.996Z,54.30
2019-03-22T12:44:09.144Z,53.40
2019-03-22T12:46:41.287Z,52.20
2019-03-22T12:49:13.750Z,53.60
2019-03-22T12:51:45.969Z,53.40
2019-03-22T12:54:18.265Z,56.40
2019-03-22T12:56:50.449Z,55.40
2019-03-22T12:59:23.032Z,55.80
2019-03-22T13:01:55.508Z,57.00
2019-03-22T13:04:28.400Z,57.10
2019-03-22T13:07:00.655Z,56.00
2019-03-22T13:09:32.865Z,56.50
2019-03-22T13:12:06.390Z,55.90
2019-03-22T13:14:39.026Z,54.90
2019-03-22T13:17:11.095Z,56.10
2019-03-22T13:19:43.180Z,55.40
2019-03-22T13:22:15.773Z,55.90
2019-03-22T13:24:48.540Z,54.60
2019-03-22T13:27:21.337Z,54.20
2019-03-22T13:29:53.794Z,56.20
2019-03-22T13:32:25.867Z,57.10
2019-03-22T13:34:57.934Z,57.10
2019-03-22T13:37:30.107Z,55.50
2019-03-22T13:40:02.391Z,55.80
2019-03-22T13:42:34.616Z,54.40
2019-03-22T13:45:07.954Z,55.60
2019-03-22T13:47:40.315Z,51.90
2019-03-22T13:50:12.934Z,55.20
2019-03-22T13:52:45.071Z,53.00
2019-03-22T13:55:17.217Z,53.00
2019-03-22T13:57:49.455Z,52.10
2019-03-22T14:00:22.519Z,50.90
2019-03-22T14:03:02.751Z,53.10
2019-03-22T14:05:29.604Z,53.50
2019-03-22T14:08:01.758Z,52.90
2019-03-22T14:10:35.505Z,52.10
2019-03-22T14:13:08.393Z,52.60
2019-03-22T14:15:40.616Z,53.20
2019-03-22T14:18:13.326Z,52.80
2019-03-22T14:20:45.627Z,54.70
2019-03-22T14:23:17.705Z,56.30
2019-03-22T14:25:50.228Z,55.80
2019-03-22T14:28:22.635Z,56.80
2019-03-22T14:30:55.320Z,58.20
2019-03-22T14:33:27.369Z,58.40
2019-03-22T14:35:59.499Z,58.00
2019-03-22T14:38:31.532Z,60.20
2019-03-22T14:41:03.764Z,60.10
2019-03-22T14:43:36.209Z,60.90
2019-03-22T14:46:08.293Z,58.70
2019-03-22T14:48:40.504Z,56.00
2019-03-22T14:51:12.879Z,56.00
2019-03-22T14:53:44.945Z,54.90
2019-03-22T14:56:17.734Z,53.70
2019-03-22T14:58:49.818Z,52.40
2019-03-22T15:01:22.016Z,53.60
2019-03-22T15:03:54.226Z,50.90
2019-03-22T15:06:26.371Z,52.00
2019-03-22T15:08:58.425Z,51.10
2019-03-22T15:11:30.500Z,52.00
2019-03-22T15:14:20.634Z,52.30
2019-03-22T15:17:12.885Z,51.60
2019-03-22T15:20:04.180Z,51.90
2019-03-22T15:22:58.600Z,51.70
2019-03-22T15:25:57.723Z,51.70
2019-03-22T15:28:47.660Z,51.30
2019-03-22T15:31:38.815Z,51.60
2019-03-22T15:34:33.255Z,52.40
2019-03-22T15:37:33.476Z,51.20
2019-03-22T15:40:06.422Z,51.80
2019-03-22T15:42:38.774Z,51.60
2019-03-22T15:45:13.842Z,52.30
2019-03-22T15:47:47.062Z,52.30
2019-03-22T15:50:20.190Z,53.60
2019-03-22T15:52:52.661Z,53.60
2019-03-22T15:55:25.262Z,52.70
2019-03-22T15:57:57.729Z,52.90
2019-03-22T16:00:30.222Z,53.40
2019-03-22T16:03:02.331Z,53.50
2019-03-22T16:05:34.336Z,54.10
2019-03-22T16:08:07.777Z,53.60
2019-03-22T16:10:39.854Z,55.00
2019-03-22T16:13:12.020Z,54.60
2019-03-22T16:15:44.234Z,54.30
2019-03-22T16:18:16.481Z,54.90
2019-03-22T16:20:48.871Z,55.30
2019-03-22T16:23:20.982Z,55.10
2019-03-22T16:25:53.059Z,55.10
2019-03-22T16:28:25.510Z,55.60
2019-03-22T16:30:57.818Z,55.80
2019-03-22T16:33:30.268Z,56.90
2019-03-22T16:36:02.927Z,57.20
2019-03-22T16:38:35.629Z,57.80
2019-03-22T16:41:07.703Z,58.50
2019-03-22T16:43:39.907Z,58.10
2019-03-22T16:46:14.156Z,59.30
2019-03-22T16:48:46.390Z,59.10
2019-03-22T16:51:19.724Z,60.60
2019-03-22T16:53:52.177Z,61.20
2019-03-22T16:56:24.474Z,61.00
2019-03-22T16:58:56.469Z,61.30
2019-03-22T17:01:29.065Z,62.00
2019-03-22T17:04:04.582Z,63.30
2019-03-22T17:06:35.771Z,63.20
2019-03-22T17:09:09.133Z,63.00
2019-03-22T17:11:41.289Z,64.80
2019-03-22T17:14:13.667Z,65.80
2019-03-22T17:16:45.811Z,67.50
2019-03-22T17:19:18.163Z,69.50
2019-03-22T17:21:50.384Z,72.00
2019-03-22T17:24:22.596Z,76.40
2019-03-22T17:26:54.994Z,81.30
2019-03-22T17:29:27.201Z,86.70
2019-03-22T17:31:59.329Z,90.80
2019-03-22T17:34:31.386Z,94.40
2019-03-22T17:37:03.391Z,97.00
2019-03-22T17:39:35.372Z,99.80
2019-03-22T17:42:07.963Z,99.90
2019-03-22T17:44:40.161Z,99.90
2019-03-22T17:47:12.232Z,99.90
2019-03-22T17:49:48.500Z,99.90
2019-03-22T17:52:18.115Z,99.90
2019-03-22T17:54:50.174Z,99.90
2019-03-22T17:57:22.172Z,99.90
2019-03-22T17:59:54.258Z,99.90
2019-03-22T18:02:26.384Z,99.90
2019-03-22T18:04:58.481Z,99.90
2019-03-22T18:07:30.851Z,99.90
2019-03-22T18:10:03.231Z,99.90
2019-03-22T18:12:35.925Z,99.90
2019-03-22T18:15:09.560Z,99.90
2019-03-22T18:17:41.693Z,99.90
2019-03-22T18:20:14.307Z,99.90
2019-03-22T18:22:46.586Z,99.90
2019-03-22T18:25:19.005Z,99.90
2019-03-22T18:27:51.485Z,99.90
2019-03-22T18:30:23.662Z,99.90
2019-03-22T18:32:55.728Z,99.90
2019-03-22T18:35:27.783Z,99.90
2019-03-22T18:38:00.002Z,99.90
2019-03-22T18:40:32.062Z,99.90
2019-03-22T18:43:04.145Z,99.90
2019-03-22T18:45:36.225Z,99.90
2019-03-22T18:48:08.762Z,99.90
2019-03-22T18:50:40.855Z,99.90
2019-03-22T18:53:13.191Z,99.90
2019-03-22T18:55:45.183Z,99.90
2019-03-22T18:58:17.150Z,99.90
2019-03-22T19:00:49.829Z,99.90
2019-03-22T19:03:22.325Z,99.90
2019-03-22T19:05:54.592Z,99.90
2019-03-22T19:08:26.659Z,99.90
2019-03-22T19:10:58.701Z,99.90
2019-03-22T19:13:31.283Z,99.90
2019-03-22T19:16:03.754Z,99.90
2019-03-22T19:18:36.236Z,99.90
2019-03-22T19:21:08.363Z,99.90
2019-03-22T19:23:40.451Z,99.90
2019-03-22T19:26:12.427Z,99.90
2019-03-22T19:28:44.529Z,99.90
2019-03-22T19:31:16.593Z,99.90
2019-03-22T19:33:48.573Z,99.90
2019-03-22T19:36:20.728Z,99.90
2019-03-22T19:38:53.161Z,99.90
2019-03-22T19:41:25.536Z,99.90
2019-03-22T19:43:57.879Z,99.90
2019-03-22T19:46:29.921Z,99.90
2019-03-22T19:49:02.023Z,99.90
2019-03-22T19:51:34.065Z,99.90
2019-03-22T19:54:06.567Z,99.90
2019-03-22T19:56:38.707Z,99.90
2019-03-22T19:59:10.680Z,99.90
2019-03-22T20:01:42.901Z,99.90
2019-03-22T20:04:15.013Z,99.90
2019-03-22T20:06:47.138Z,99.90
2019-03-22T20:09:19.613Z,99.90
2019-03-22T20:11:52.051Z,99.90
2019-03-22T20:14:24.190Z,99.90
2019-03-22T20:16:56.356Z,99.90
2019-03-22T20:19:28.374Z,99.90
2019-03-22T20:22:00.608Z,99.90
2019-03-22T20:24:33.204Z,99.90
2019-03-22T20:27:05.441Z,99.90
2019-03-22T20:29:37.518Z,99.90
2019-03-22T20:32:10.002Z,99.90
2019-03-22T20:34:42.182Z,99.90
2019-03-22T20:37:14.956Z,99.90
2019-03-22T20:39:47.616Z,99.90
2019-03-22T20:42:19.698Z,99.90
2019-03-22T20:44:51.923Z,99.90
2019-03-22T20:47:24.081Z,99.90
2019-03-22T20:49:56.226Z,99.90
2019-03-22T20:52:28.320Z,99.90
2019-03-22T20:55:00.578Z,99.90
2019-03-22T20:57:32.730Z,99.90
2019-03-22T21:00:05.908Z,99.90
2019-03-22T21:02:39.695Z,99.90
2019-03-22T21:05:12.359Z,99.90
2019-03-22T21:07:44.848Z,99.90
2019-03-22T21:10:17.170Z,99.90
2019-03-22T21:12:49.445Z,99.90
2019-03-22T21:15:24.540Z,99.90
2019-03-22T21:17:56.403Z,99.90
2019-03-22T21:20:28.678Z,99.90
2019-03-22T21:23:01.013Z,99.90
2019-03-22T21:25:33.220Z,99.90
2019-03-22T21:28:05.630Z,99.90
2019-03-22T21:30:38.516Z,99.90
2019-03-22T21:33:11.921Z,99.90
2019-03-22T21:35:44.744Z,99.90
2019-03-22T21:38:17.458Z,99.90
2019-03-22T21:40:50.302Z,99.90
2019-03-22T21:43:23.058Z,99.90
2019-03-22T21:45:55.588Z,99.90
2019-03-22T21:48:27.982Z,99.90
2019-03-22T21:51:00.213Z,99.90
2019-03-22T21:53:32.726Z,99.90
2019-03-22T21:56:05.147Z,99.90
2019-03-22T21:58:37.332Z,99.90
2019-03-22T22:01:09.781Z,99.90
2019-03-22T22:03:42.200Z,99.90
2019-03-22T22:06:14.603Z,99.90
2019-03-22T22:08:47.178Z,99.90
2019-03-22T22:11:20.638Z,99.90
2019-03-22T22:13:53.075Z,99.90
2019-03-22T22:16:25.273Z,99.90
2019-03-22T22:18:57.971Z,99.90
2019-03-22T22:21:30.592Z,99.90
2019-03-22T22:24:02.932Z,99.90
2019-03-22T22:26:35.075Z,99.90
2019-03-22T22:29:07.478Z,99.90
2019-03-22T22:31:39.807Z,99.90
2019-03-22T22:34:14.390Z,99.90
2019-03-22T22:36:46.937Z,99.90
2019-03-22T22:39:19.630Z,99.90
2019-03-22T22:41:51.925Z,99.90
2019-03-22T22:44:24.179Z,99.90
2019-03-22T22:46:56.895Z,99.90
2019-03-22T22:49:29.189Z,99.90
2019-03-22T22:52:01.618Z,99.90
2019-03-22T22:54:34.297Z,99.90
2019-03-22T22:57:07.715Z,99.90
2019-03-22T22:59:39.838Z,99.90
2019-03-22T23:02:12.900Z,99.90
2019-03-22T23:04:44.886Z,99.90
2019-03-22T23:07:16.849Z,99.90
2019-03-22T23:09:49.174Z,99.90
2019-03-22T23:12:21.716Z,99.90
2019-03-22T23:14:53.770Z,99.90
2019-03-22T23:17:26.163Z,99.90
2019-03-22T23:19:58.518Z,99.90
2019-03-22T23:22:30.586Z,99.90
2019-03-22T23:25:02.976Z,99.90
2019-03-22T23:27:35.148Z,99.90
2019-03-22T23:30:08.104Z,99.90
2019-03-22T23:32:41.265Z,99.90
2019-03-22T23:35:13.903Z,99.90
2019-03-22T23:37:47.116Z,99.90
2019-03-22T23:40:19.258Z,99.90
2019-03-22T23:42:51.226Z,99.90
2019-03-22T23:45:23.364Z,99.90
2019-03-22T23:47:55.437Z,99.90
2019-03-22T23:50:27.577Z,99.90
2019-03-22T23:52:59.654Z,99.90
2019-03-22T23:55:32.151Z,99.90
2019-03-22T23:58:04.242Z,99.90
